Cheyenne, WY

1:35 AM MDT on May 24, 2015 (GMT -0600)
Cheyenne | | Change Station
CLOSE
Current Station
Airport
Location: Cheyenne,
Elevation: 6142 ft
Nearby Weather Stations

Elev 6142 ft 41.16 °N, 104.81 °W | Updated 42 minutes ago

Partly Cloudy
Partly Cloudy
44 °F
Feels Like 41 °F
N
6
Wind Variable Wind from WNW

Today
High -- | Low -- °F
--% Chance of Precip.
Yesterday
High -- | Low -- °F
Precip. -- in
5:33 AM 8:19 PM
Waxing Crescent, 37% visible
Pressure 29.81 in
Visibility 10.0 miles
Clouds Few 2900 ft
Windchill 41 °F
Dew Point 39 °F
Humidity 82%
Rainfall 0.00 in
Snow Depth Not available.
UV 0 out of 12
Pollen 5.90 out of 12
Air Quality Not available.
Flu Activity Sporadic
METAR KCYS 240653Z AUTO 30005KT 10SM FEW029 07/04 A2994 RMK AO2 SLP093 T00670039 401390056 TSNO $

More Conditions Fewer Conditions

Pressure 29.81 in
Visibility 10.0 miles
Clouds Few 2900 ft
Windchill 41 °F
Dew Point 39 °F
Humidity 82%
Rainfall 0.00 in
Snow Depth Not available.
UV 0 out of 12
Pollen 5.90 out of 12
Air Quality Not available.
Flu Activity Sporadic
METAR KCYS 240653Z AUTO 30005KT 10SM FEW029 07/04 A2994 RMK AO2 SLP093 T00670039 401390056 TSNO $

More Conditions Fewer Conditions

10-Day Weather Forecast

Almanac

Astronomy

May. 24, 2015 Rise Set
Actual Time
Civil Twilight
Nautical Twilight
Astronomical Twilight
Moon
Length of Visible Light
Length of Day
Tomorrow will be .
, % of the Moon is Illuminated

Today's Extremes

State Highs State Lows

Community

WunderPhotos

Upload Photos

1,823,698 photos uploaded!

WunderBlogs® & News

Nearby

Air Quality

  Air Quality AQ Index Pollutant
Not available.

Snow Depth

Station Depth Elevation

Earthquake Activity

City Distance Mag. Time & Date
Minimum magnitude displayed is 2.5.

Coastal Water Temperatures

Place Temperature

Stations

Nearby Weather Stations

Station Location Temp. Windchill Dew Point Humidity Wind Precip. Elev Updated Type
                   
Flood Watch / Flood Statement
Statement as of 11:49 PM MDT on May 23, 2015

... Flash Flood Watch will expire at midnight MDT tonight...

The Flash Flood Watch for portions of western Nebraska and
Wyoming will expire at midnight MDT tonight.